Latest Weather Observations for Holsworthy (Defence)

IDN60801

Issued at 11:12 pm EDT Friday 15 November 2019 (issued every 10 minutes, with the page automatically refreshed every 10 minutes)

About weather observations | Map of weather stations | Latest weather observations for NSW | Other Formats
Station Details ID: 068263 Name: HOLSWORTHY DEFENCE AWS Lat: -34.08 Lon: 150.90 Height: 165.0 m
Data from the previous 72 hours. | See also: Recent months at Holsworthy (Defence)
Date/Time
EDT
Temp
°C
App
Temp
°C
Dew
Point
°C
Rel
Hum
%
Delta-T
°C
Wind Press
QNH
hPa
Press
MSL
hPa
Rain since
9am
mm
Dir  Spd
km/h
Gust
km/h
Spd
kts
Gust
kts
15/11:00pm 20.4 19.3 10.8 54 5.3 SE 7 13 4 7 - - 0.0
15/10:30pm 23.1 20.3 2.0 25 10.0 S 6 9 3 5 - - 0.0
15/10:00pm 25.2 21.6 -2.4 16 12.3 W 7 13 4 7 - - 0.0
15/09:30pm 25.6 21.5 -2.9 15 12.6 W 9 15 5 8 - - 0.0
15/09:00pm 26.2 21.8 -2.4 15 12.8 W 11 20 6 11 - - 0.0
15/08:30pm 26.4 22.3 -3.2 14 13.1 WSW 9 17 5 9 - - 0.0
15/08:00pm 27.4 22.4 -4.5 12 13.9 WSW 13 20 7 11 - - 0.0
15/07:30pm 28.2 23.1 -5.0 11 14.4 WSW 13 20 7 11 - - 0.0
15/07:00pm 29.2 23.7 -5.5 10 15.1 WSW 15 26 8 14 - - 0.0
15/06:30pm 30.1 24.1 -6.2 9 15.7 W 17 33 9 18 - - 0.0
15/06:00pm 30.3 24.4 -6.1 9 15.8 W 17 35 9 19 - - 0.0
15/05:30pm 31.8 25.2 -6.5 8 16.7 W 20 37 11 20 - - 0.0
15/05:00pm 32.0 25.1 -6.3 8 16.8 W 22 48 12 26 - - 0.0
15/04:30pm 32.2 24.0 -7.9 7 17.1 WNW 28 44 15 24 - - 0.0
15/04:00pm 32.3 25.2 -4.6 9 16.7 WSW 24 43 13 23 - - 0.0
15/03:30pm 33.1 27.2 -5.5 8 17.3 W 17 35 9 19 - - 0.0
15/03:00pm 31.9 25.5 -4.9 9 16.5 W 20 41 11 22 - - 0.0
15/02:30pm 32.1 25.7 -4.7 9 16.6 W 20 35 11 19 - - 0.0
15/02:00pm 31.7 26.0 -3.6 10 16.2 NNW 17 30 9 16 - - 0.0
15/01:30pm 31.7 26.2 -2.3 11 15.9 NW 17 30 9 16 - - 0.0
15/01:00pm 30.8 26.1 -1.9 12 15.3 NW 13 22 7 12 - - 0.0
15/12:30pm 29.7 26.4 0.3 15 14.2 WNW 7 22 4 12 - - 0.0
15/12:00pm 29.2 25.0 1.7 17 13.6 NW 13 20 7 11 - - 0.0
15/11:30am 28.1 23.1 1.6 18 12.9 W 17 30 9 16 - - 0.0
15/11:00am 27.3 23.1 1.7 19 12.5 WNW 13 28 7 15 - - 0.0
15/10:30am 25.8 22.3 3.7 24 11.0 NW 11 22 6 12 - - 0.0
15/10:00am 24.6 20.9 4.4 27 10.1 NW 13 22 7 12 - - 0.0
15/09:30am 24.1 20.5 5.0 29 9.7 W 13 20 7 11 - - 0.0
15/09:00am 22.9 18.1 4.9 31 9.0 WNW 19 32 10 17 - - 0.0
15/08:30am 21.7 19.5 6.0 36 8.0 NW 7 15 4 8 - - 0.0
15/08:00am 19.8 17.3 6.5 42 6.7 NW 9 15 5 8 - - 0.0
15/07:30am 17.6 15.8 7.9 53 5.0 WNW 7 11 4 6 - - 0.0
15/07:00am 15.8 13.9 6.5 54 4.6 NW 6 7 3 4 - - 0.0
15/06:30am 15.5 13.4 6.0 53 4.6 NW 6 7 3 4 - - 0.0
15/06:00am 15.4 13.3 5.9 53 4.6 NW 6 9 3 5 - - 0.0
15/05:30am 15.8 14.1 6.0 52 4.8 NW 4 6 2 3 - - 0.0
15/05:00am 16.1 14.4 6.0 51 4.9 NW 4 7 2 4 - - 0.0
15/04:30am 14.8 13.2 6.4 57 4.1 WNW 4 7 2 4 - - 0.0
15/04:00am 14.4 12.6 7.2 62 3.6 W 6 11 3 6 - - 0.0
15/03:30am 12.1 10.9 8.0 76 2.0 SSW 4 7 2 4 - - 0.0
15/03:00am 12.6 11.1 8.5 76 2.1 S 6 7 3 4 - - 0.0
15/02:30am 12.6 11.5 8.3 75 2.1 S 4 6 2 3 - - 0.0
15/02:00am 13.2 12.5 8.7 74 2.3 S 2 6 1 3 - - 0.0
15/01:30am 13.6 13.0 9.1 74 2.3 S 2 9 1 5 - - 0.0
15/01:00am 13.1 11.5 8.8 75 2.2 SSE 7 9 4 5 - - 0.0
15/12:30am 13.6 12.3 9.3 75 2.2 SSE 6 7 3 4 - - 0.0
15/12:00am 13.9 12.3 8.9 72 2.6 SSE 7 7 4 4 - - 0.0
 
Date/Time
EDT
Temp
°C
App
Temp
°C
Dew
Point
°C
Rel
Hum
%
Delta-T
°C
Wind Press
QNH
hPa
Press
MSL
hPa
Rain since
9am
mm
Dir  Spd
km/h
Gust
km/h
Spd
kts
Gust
kts
14/11:30pm 14.2 12.8 8.8 70 2.8 S 6 11 3 6 - - 0.0
14/11:00pm 15.2 13.9 9.3 68 3.1 SSE 6 7 3 4 - - 0.0
14/10:30pm 15.8 15.0 9.7 67 3.2 ESE 4 9 2 5 - - 0.0
14/10:00pm 16.3 15.8 9.3 63 3.7 ENE 2 6 1 3 - - 0.0
14/09:30pm 16.3 15.2 8.5 60 4.0 SSE 4 6 2 3 - - 0.0
14/09:00pm 17.4 16.4 8.8 57 4.5 SSE 4 6 2 3 - - 0.0
14/08:30pm 18.0 16.9 8.6 54 4.9 SE 4 7 2 4 - - 0.0
14/08:00pm 18.9 17.8 8.3 50 5.5 ESE 4 6 2 3 - - 0.0
14/07:30pm 20.5 19.2 7.8 44 6.6 E 4 9 2 5 - - 0.0
14/07:00pm 22.1 20.7 7.1 38 7.8 ENE 4 6 2 3 - - 0.0
14/06:30pm 23.3 21.5 7.0 35 8.5 ENE 6 11 3 6 - - 0.0
14/06:00pm 24.3 21.8 6.6 32 9.2 NE 9 17 5 9 - - 0.0
14/05:30pm 25.3 22.7 6.0 29 10.0 NE 9 19 5 10 - - 0.0
14/05:00pm 25.3 21.8 5.5 28 10.2 ENE 13 24 7 13 - - 0.0
14/04:30pm 26.5 23.1 6.0 27 10.7 NE 13 22 7 12 - - 0.0
14/04:00pm 26.5 22.6 5.5 26 10.9 NE 15 26 8 14 - - 0.0
14/03:30pm 26.8 23.2 5.1 25 11.2 NE 13 22 7 12 - - 0.0
14/03:00pm 26.1 22.0 4.6 25 10.9 ENE 15 30 8 16 - - 0.0
14/02:30pm 26.2 22.7 3.5 23 11.3 NNE 11 24 6 13 - - 0.0
14/02:00pm 27.2 23.9 2.3 20 12.2 NNW 9 20 5 11 - - 0.0
14/01:30pm 26.8 23.5 2.7 21 11.9 WNW 9 24 5 13 - - 0.0
14/01:00pm 26.3 22.6 2.3 21 11.7 N 11 24 6 13 - - 0.0
14/12:30pm 26.2 22.6 2.8 22 11.5 NNW 11 24 6 13 - - 0.0
14/12:00pm 25.2 22.6 3.2 24 10.8 N 6 13 3 7 - - 0.0
14/11:30am 24.0 21.1 2.8 25 10.3 NNE 7 19 4 10 - - 0.0
14/11:00am 23.3 20.6 2.7 26 9.9 NW 6 13 3 7 - - 0.0
14/10:30am 22.3 19.3 1.9 26 9.6 W 7 15 4 8 - - 0.0
14/10:00am 21.4 18.5 2.6 29 8.9 W 7 13 4 7 - - 0.0
14/09:30am 20.6 17.3 2.4 30 8.5 W 9 20 5 11 - - 0.0
14/09:00am 19.7 16.0 2.6 32 8.0 SW 11 22 6 12 - - 0.0
14/08:30am 18.7 15.4 2.5 34 7.5 SW 9 19 5 10 - - 0.0
14/08:00am 17.7 14.3 2.1 35 7.1 SW 9 17 5 9 - - 0.0
14/07:30am 16.6 13.6 2.2 38 6.5 SW 7 17 4 9 - - 0.0
14/07:00am 15.3 12.5 2.1 41 5.9 SW 6 9 3 5 - - 0.0
14/06:30am 13.9 10.8 1.2 42 5.5 SW 7 11 4 6 - - 0.0
14/06:00am 13.7 10.5 0.7 41 5.6 SW 7 11 4 6 - - 0.0
14/05:30am 13.5 10.3 0.5 41 5.5 SW 7 11 4 6 - - 0.0
14/05:00am 14.1 10.8 0.4 39 5.8 SW 7 13 4 7 - - 0.0
14/04:30am 14.3 11.0 -0.2 37 6.1 SW 7 11 4 6 - - 0.0
14/04:00am 14.8 12.0 -0.5 35 6.4 WSW 4 6 2 3 - - 0.0
14/03:30am 15.5 11.8 -0.3 34 6.7 SW 9 17 5 9 - - 0.0
14/03:00am 16.1 11.2 -0.6 32 7.1 WSW 15 26 8 14 - - 0.0
14/02:30am 16.4 10.5 -0.8 31 7.3 WSW 20 35 11 19 - - 0.0
14/02:00am 16.0 11.1 -0.7 32 7.1 WSW 15 20 8 11 - - 0.0
14/01:30am 15.9 12.4 -1.2 31 7.2 SW 7 13 4 7 - - 0.0
14/01:00am 16.5 11.9 -1.1 30 7.4 SW 13 22 7 12 - - 0.0
14/12:30am 16.5 11.5 -1.1 30 7.4 WSW 15 26 8 14 - - 0.0
14/12:00am 16.6 12.0 -1.0 30 7.5 WSW 13 19 7 10 - - 0.0
 
Date/Time
EDT
Temp
°C
App
Temp
°C
Dew
Point
°C
Rel
Hum
%
Delta-T
°C
Wind Press
QNH
hPa
Press
MSL
hPa
Rain since
9am
mm
Dir  Spd
km/h
Gust
km/h
Spd
kts
Gust
kts
13/11:30pm 17.2 12.6 -1.0 29 7.7 WSW 13 20 7 11 - - 0.0
13/11:00pm 16.6 13.2 -0.6 31 7.3 W 7 15 4 8 - - 0.0
13/10:30pm 16.3 12.8 1.2 36 6.7 WNW 9 17 5 9 - - 0.0
13/10:00pm 17.1 13.2 1.1 34 7.1 W 11 20 6 11 - - 0.0
13/09:30pm 14.3 12.6 7.4 63 3.4 W 6 9 3 5 - - 0.0
13/09:00pm 14.6 13.8 8.3 66 3.2 ESE 2 2 1 1 - - 0.0
13/08:30pm 15.1 14.3 8.3 64 3.5 SSE 2 6 1 3 - - 0.0
13/08:00pm 15.8 15.4 8.1 60 3.9 CALM 0 2 0 1 - - 0.0
13/07:30pm 17.2 15.6 8.1 55 4.7 E 6 7 3 4 - - 0.0
13/07:00pm 18.4 16.8 7.8 50 5.4 ENE 6 11 3 6 - - 0.0
13/06:30pm 19.2 17.3 7.6 47 6.0 ENE 7 11 4 6 - - 0.0
13/06:00pm 20.0 16.9 5.6 39 7.2 ENE 11 17 6 9 - - 0.0
13/05:30pm 20.5 17.3 4.9 36 7.7 E 11 22 6 12 - - 0.0
13/05:00pm 21.1 16.8 3.3 31 8.5 NE 15 24 8 13 - - 0.0
13/04:30pm 22.4 19.0 2.0 26 9.6 ENE 9 19 5 10 - - 0.0
13/04:00pm 26.1 21.0 -9.2 9 13.9 WNW 11 26 6 14 - - 0.0
13/03:30pm 25.8 21.1 -9.4 9 13.8 WNW 9 20 5 11 - - 0.0
13/03:00pm 24.7 19.3 -8.9 10 13.2 W 13 26 7 14 - - 0.0
13/02:30pm 24.6 18.3 -10.3 9 13.3 W 17 35 9 19 - - 0.0
13/02:00pm 23.8 18.2 -10.9 9 13.0 WNW 13 35 7 19 - - 0.0
13/01:30pm 23.6 18.4 -11.1 9 12.9 W 11 26 6 14 - - 0.0
13/01:00pm 23.2 16.8 -11.4 9 12.7 SW 17 35 9 19 - - 0.0
13/12:30pm 22.1 17.8 -8.6 12 11.8 SSW 7 24 4 13 - - 0.0
13/12:00pm 22.3 16.2 -7.4 13 11.7 WSW 17 30 9 16 - - 0.0
13/11:30am 21.1 15.7 -8.4 13 11.2 W 13 22 7 12 - - 0.0
13/11:00am 19.9 15.3 -8.4 14 10.6 W 9 24 5 13 - - 0.0
13/10:30am 19.1 13.6 -5.7 18 9.8 SW 15 28 8 15 - - 0.0
13/10:00am 18.0 13.3 -5.3 20 9.1 WSW 11 24 6 13 - - 0.0
13/09:30am 17.7 12.3 -4.3 22 8.8 WSW 15 30 8 16 - - 0.0
13/09:00am 16.5 11.2 -3.6 25 8.0 SW 15 32 8 17 - - 0.0
13/08:30am 15.8 9.3 -2.6 28 7.5 W 22 32 12 17 - - 0.0
13/08:00am 15.7 12.3 -0.5 33 6.9 WSW 7 15 4 8 - - 0.0
13/07:30am 14.9 11.6 0.4 37 6.2 WSW 7 13 4 7 - - 0.0
13/07:00am 13.9 10.9 0.5 40 5.7 W 6 17 3 9 - - 0.0
13/06:30am 12.9 9.6 0.3 42 5.3 WSW 7 13 4 7 - - 0.0
13/06:00am 12.7 9.0 0.1 42 5.3 WSW 9 17 5 9 - - 0.0
13/05:30am 12.5 8.9 0.9 45 4.9 WSW 9 15 5 8 - - 0.0
13/05:00am 13.2 9.4 1.5 45 5.1 WSW 11 17 6 9 - - 0.0
13/04:30am 12.9 9.7 5.1 59 3.6 WSW 11 24 6 13 - - 0.0
13/04:00am 11.2 9.4 8.1 81 1.5 SW 7 11 4 6 - - 0.0
13/03:30am 11.2 10.8 8.2 82 1.5 CALM 0 0 0 0 - - 0.0
13/03:00am 11.9 10.9 8.9 82 1.5 SSW 4 6 2 3 - - 0.0
13/02:30am 12.9 11.6 9.2 78 1.9 S 6 9 3 5 - - 0.0
13/02:00am 13.5 11.7 9.6 77 2.0 SSE 9 15 5 8 - - 0.0
13/01:30am 13.8 12.0 9.6 76 2.2 SSE 9 15 5 8 - - 0.0
13/01:00am 14.1 12.0 9.7 75 2.3 S 11 19 6 10 - - 0.0
13/12:30am 14.5 12.0 9.7 73 2.5 SSE 13 24 7 13 - - 0.0
13/12:00am 14.9 11.8 10.3 74 2.4 SSE 17 26 9 14 - - 0.0
 
Date/Time
EDT
Temp
°C
App
Temp
°C
Dew
Point
°C
Rel
Hum
%
Delta-T
°C
Wind Press
QNH
hPa
Press
MSL
hPa
Rain since
9am
mm
Dir  Spd
km/h
Gust
km/h
Spd
kts
Gust
kts
12/11:30pm 14.9 11.3 10.5 75 2.3 SSE 20 35 11 19 - - 0.0

Other formats

Comma delimited format used in spreadsheet applications
http://www.bom.gov.au/fwo/IDN60801/IDN60801.95684.axf

JavaScript Object Notation format (JSON) in row-major order
http://www.bom.gov.au/fwo/IDN60801/IDN60801.95684.json

Data quality

Most of these data are generated automatically and are frequently updated. Quality checks on data are not normally performed. It is possible for incorrect values to appear. Refer to information at About Latest Weather Observations and please check the disclaimer before using these data.